Terminal Aerodrome Forecast
Issued by NWS

Home | Current Version | Previous Version | Text Only | Print | Product List | Glossary On
Versions: 1 2 3 4 5 6 7 8 9 10 11 12 13 14
302
FTUS45 KRIW 190523
TAFRKS
TAF
KRKS 190523Z 1906/2006 03012KT 1 1/2SM -SN OVC015
      TEMPO 1907/1911 3/4SM -SN OVC008
     FM191500 05015G25KT 1SM -SN OVC008
     FM192200 07015KT 3SM -SN OVC025
     FM200000 07011KT P6SM VCSH BKN035=

USA.gov is the U.S. government's official web portal to all federal, state and local government web resources and services.